Sousa, Brazil
Current Conditions -  °F | °C
As of 1:00 PM on Friday 31 Oct 2014 (Local Time) from SBJU Reporting Station
Scattered Clouds Scattered Clouds  
Wind Chill: 95°   Ceiling: Unl
Heat Index: 95°   Visibility: 6mi
Dew Point: 59°   Wind: 9mph
Humidity: 30%   Direction: 100°E
Pressure: 29.97"   Gusts: NA
Location:  6.76°S, 38.23°W
Report Text: SBJU 311600Z 10008KT 9999 SCT022 35/15 Q1015
Loading
Personal Weather Stations






























Interactive Weather Map
Tropical Storm Tracking
New forecast layout! Learn more

10-Day Weather Forecast

Advertisements
Track Severe Weather on mobile